sensor_id;sensor_type;location;lat;lon;timestamp;pressure;altitude;pressure_sealevel;temperature;humidity
48424;BME280;34232;42.502;26.014;2023-03-13T00:00:33;100415.19;;;9.47;57.01
48424;BME280;34232;42.502;26.014;2023-03-13T00:02:59;100418.03;;;9.44;57.35
48424;BME280;34232;42.502;26.014;2023-03-13T00:05:24;100414.91;;;9.39;57.47
48424;BME280;34232;42.502;26.014;2023-03-13T00:07:49;100420.19;;;9.39;57.19
48424;BME280;34232;42.502;26.014;2023-03-13T00:10:15;100418.72;;;9.35;57.43
48424;BME280;34232;42.502;26.014;2023-03-13T00:12:40;100410.75;;;9.24;57.30
48424;BME280;34232;42.502;26.014;2023-03-13T00:15:05;100420.44;;;9.10;58.17
48424;BME280;34232;42.502;26.014;2023-03-13T00:17:31;100416.84;;;9.11;57.93
48424;BME280;34232;42.502;26.014;2023-03-13T00:19:57;100424.34;;;9.05;58.18
48424;BME280;34232;42.502;26.014;2023-03-13T00:22:22;100429.16;;;8.98;58.65
48424;BME280;34232;42.502;26.014;2023-03-13T00:24:48;100423.19;;;8.96;58.96
48424;BME280;34232;42.502;26.014;2023-03-13T00:27:13;100429.47;;;8.94;58.60
48424;BME280;34232;42.502;26.014;2023-03-13T00:29:38;100428.66;;;8.93;59.09
48424;BME280;34232;42.502;26.014;2023-03-13T00:32:04;100422.59;;;8.93;59.42
48424;BME280;34232;42.502;26.014;2023-03-13T00:34:29;100430.56;;;8.91;59.10
48424;BME280;34232;42.502;26.014;2023-03-13T00:36:54;100432.25;;;8.92;59.17
48424;BME280;34232;42.502;26.014;2023-03-13T00:39:20;100427.84;;;8.93;59.11
48424;BME280;34232;42.502;26.014;2023-03-13T00:41:46;100418.16;;;8.93;59.04
48424;BME280;34232;42.502;26.014;2023-03-13T00:44:11;100421.75;;;8.92;59.46
48424;BME280;34232;42.502;26.014;2023-03-13T00:46:37;100424.22;;;8.94;59.66
48424;BME280;34232;42.502;26.014;2023-03-13T00:49:02;100434.63;;;8.95;59.79
48424;BME280;34232;42.502;26.014;2023-03-13T00:51:28;100424.66;;;9.00;60.13
48424;BME280;34232;42.502;26.014;2023-03-13T00:53:53;100422.13;;;8.99;60.11
48424;BME280;34232;42.502;26.014;2023-03-13T00:56:19;100425.06;;;8.94;60.50
48424;BME280;34232;42.502;26.014;2023-03-13T00:58:46;100430.56;;;8.91;59.93
48424;BME280;34232;42.502;26.014;2023-03-13T01:01:16;100431.72;;;8.87;60.91
48424;BME280;34232;42.502;26.014;2023-03-13T01:03:43;100420.47;;;8.85;60.34
48424;BME280;34232;42.502;26.014;2023-03-13T01:06:12;100420.69;;;8.82;60.16
48424;BME280;34232;42.502;26.014;2023-03-13T01:08:38;100428.75;;;8.79;59.64
48424;BME280;34232;42.502;26.014;2023-03-13T01:11:05;100428.03;;;8.77;59.43
48424;BME280;34232;42.502;26.014;2023-03-13T01:13:31;100435.19;;;8.75;59.42
48424;BME280;34232;42.502;26.014;2023-03-13T01:15:57;100438.31;;;8.67;59.56
48424;BME280;34232;42.502;26.014;2023-03-13T01:18:25;100439.38;;;8.65;59.37
48424;BME280;34232;42.502;26.014;2023-03-13T01:20:51;100441.69;;;8.57;58.38
48424;BME280;34232;42.502;26.014;2023-03-13T01:23:16;100445.88;;;8.47;58.24
48424;BME280;34232;42.502;26.014;2023-03-13T01:25:42;100445.75;;;8.35;58.31
48424;BME280;34232;42.502;26.014;2023-03-13T01:28:07;100445.41;;;8.27;59.12
48424;BME280;34232;42.502;26.014;2023-03-13T01:30:32;100444.13;;;8.20;59.89
48424;BME280;34232;42.502;26.014;2023-03-13T01:32:58;100451.13;;;8.07;59.08
48424;BME280;34232;42.502;26.014;2023-03-13T01:35:23;100452.44;;;8.00;58.65
48424;BME280;34232;42.502;26.014;2023-03-13T01:37:48;100447.81;;;7.91;58.44
48424;BME280;34232;42.502;26.014;2023-03-13T01:40:13;100456.34;;;7.80;59.42
48424;BME280;34232;42.502;26.014;2023-03-13T01:42:49;100468.09;;;7.75;59.69
48424;BME280;34232;42.502;26.014;2023-03-13T01:47:58;100469.44;;;7.53;58.89
48424;BME280;34232;42.502;26.014;2023-03-13T01:50:24;100471.06;;;7.42;59.38
48424;BME280;34232;42.502;26.014;2023-03-13T01:52:49;100476.84;;;7.32;60.04
48424;BME280;34232;42.502;26.014;2023-03-13T01:55:14;100477.63;;;7.20;59.85
48424;BME280;34232;42.502;26.014;2023-03-13T01:57:42;100474.75;;;7.11;60.53
48424;BME280;34232;42.502;26.014;2023-03-13T02:02:36;100481.63;;;6.83;59.84
48424;BME280;34232;42.502;26.014;2023-03-13T02:05:02;100483.97;;;6.74;60.43
48424;BME280;34232;42.502;26.014;2023-03-13T02:07:30;100495.50;;;6.55;61.31
48424;BME280;34232;42.502;26.014;2023-03-13T02:09:58;100503.06;;;6.46;61.57
48424;BME280;34232;42.502;26.014;2023-03-13T02:14:56;100512.31;;;6.21;62.97
48424;BME280;34232;42.502;26.014;2023-03-13T02:17:22;100515.09;;;6.18;63.02
48424;BME280;34232;42.502;26.014;2023-03-13T02:19:49;100519.59;;;6.16;64.01
48424;BME280;34232;42.502;26.014;2023-03-13T02:27:13;100530.97;;;6.15;66.21
48424;BME280;34232;42.502;26.014;2023-03-13T02:29:39;100521.59;;;6.27;66.27
48424;BME280;34232;42.502;26.014;2023-03-13T02:32:05;100532.50;;;6.33;64.21
48424;BME280;34232;42.502;26.014;2023-03-13T02:34:31;100534.78;;;6.40;63.26
48424;BME280;34232;42.502;26.014;2023-03-13T02:36:58;100532.50;;;6.33;62.66
48424;BME280;34232;42.502;26.014;2023-03-13T02:39:24;100543.84;;;6.18;61.52
48424;BME280;34232;42.502;26.014;2023-03-13T02:41:50;100544.53;;;6.06;62.55
48424;BME280;34232;42.502;26.014;2023-03-13T02:44:16;100550.63;;;5.91;63.11
48424;BME280;34232;42.502;26.014;2023-03-13T02:46:42;100548.03;;;5.74;64.36
48424;BME280;34232;42.502;26.014;2023-03-13T02:51:45;100567.00;;;5.77;63.75
48424;BME280;34232;42.502;26.014;2023-03-13T02:54:12;100567.75;;;5.63;64.49
48424;BME280;34232;42.502;26.014;2023-03-13T02:56:39;100563.88;;;5.71;63.68
48424;BME280;34232;42.502;26.014;2023-03-13T02:59:05;100567.75;;;5.63;63.00
48424;BME280;34232;42.502;26.014;2023-03-13T03:01:31;100570.94;;;5.69;62.96
48424;BME280;34232;42.502;26.014;2023-03-13T03:03:57;100572.63;;;5.70;62.98
48424;BME280;34232;42.502;26.014;2023-03-13T03:06:22;100584.97;;;5.68;62.89
48424;BME280;34232;42.502;26.014;2023-03-13T03:08:47;100577.69;;;5.73;63.02
48424;BME280;34232;42.502;26.014;2023-03-13T03:11:13;100588.16;;;5.73;62.78
48424;BME280;34232;42.502;26.014;2023-03-13T03:13:38;100586.53;;;5.70;62.96
48424;BME280;34232;42.502;26.014;2023-03-13T03:16:11;100583.28;;;5.67;61.83
48424;BME280;34232;42.502;26.014;2023-03-13T03:18:37;100582.75;;;5.60;61.94
48424;BME280;34232;42.502;26.014;2023-03-13T03:21:03;100587.88;;;5.61;61.63
48424;BME280;34232;42.502;26.014;2023-03-13T03:23:33;100590.66;;;5.58;61.52
48424;BME280;34232;42.502;26.014;2023-03-13T03:25:59;100596.31;;;5.51;60.80
48424;BME280;34232;42.502;26.014;2023-03-13T03:28:24;100596.53;;;5.46;61.63
48424;BME280;34232;42.502;26.014;2023-03-13T03:30:50;100602.22;;;5.37;62.32
48424;BME280;34232;42.502;26.014;2023-03-13T03:33:17;100605.09;;;5.33;62.95
48424;BME280;34232;42.502;26.014;2023-03-13T03:35:42;100610.69;;;5.25;63.72
48424;BME280;34232;42.502;26.014;2023-03-13T03:38:07;100615.16;;;5.23;63.76
48424;BME280;34232;42.502;26.014;2023-03-13T03:40:33;100611.94;;;5.18;64.04
48424;BME280;34232;42.502;26.014;2023-03-13T03:42:58;100621.16;;;5.08;63.79
48424;BME280;34232;42.502;26.014;2023-03-13T03:45:23;100623.84;;;5.06;64.27
48424;BME280;34232;42.502;26.014;2023-03-13T03:47:49;100622.41;;;5.01;64.93
48424;BME280;34232;42.502;26.014;2023-03-13T03:50:14;100622.69;;;4.95;65.13
48424;BME280;34232;42.502;26.014;2023-03-13T03:52:39;100628.19;;;4.88;65.41
48424;BME280;34232;42.502;26.014;2023-03-13T03:55:05;100634.88;;;4.94;65.37
48424;BME280;34232;42.502;26.014;2023-03-13T03:57:30;100642.63;;;4.96;65.77
48424;BME280;34232;42.502;26.014;2023-03-13T03:59:55;100642.00;;;4.90;65.84
48424;BME280;34232;42.502;26.014;2023-03-13T04:02:21;100637.13;;;5.02;64.94
48424;BME280;34232;42.502;26.014;2023-03-13T04:04:46;100640.81;;;4.98;64.08
48424;BME280;34232;42.502;26.014;2023-03-13T04:07:11;100638.13;;;4.99;63.38
48424;BME280;34232;42.502;26.014;2023-03-13T04:09:36;100643.19;;;5.02;62.96
48424;BME280;34232;42.502;26.014;2023-03-13T04:12:02;100646.03;;;4.98;62.81
48424;BME280;34232;42.502;26.014;2023-03-13T04:14:27;100648.16;;;4.89;63.11
48424;BME280;34232;42.502;26.014;2023-03-13T04:16:52;100635.66;;;4.79;63.95
48424;BME280;34232;42.502;26.014;2023-03-13T04:19:18;100645.22;;;4.78;63.69
48424;BME280;34232;42.502;26.014;2023-03-13T04:21:43;100637.63;;;4.74;63.60
48424;BME280;34232;42.502;26.014;2023-03-13T04:24:08;100650.28;;;4.64;63.87
48424;BME280;34232;42.502;26.014;2023-03-13T04:26:33;100648.88;;;4.57;64.06
48424;BME280;34232;42.502;26.014;2023-03-13T04:28:59;100655.84;;;4.56;64.73
48424;BME280;34232;42.502;26.014;2023-03-13T04:31:24;100657.53;;;4.57;65.18
48424;BME280;34232;42.502;26.014;2023-03-13T04:33:49;100661.59;;;4.46;63.62
48424;BME280;34232;42.502;26.014;2023-03-13T04:36:14;100661.88;;;4.40;63.98
48424;BME280;34232;42.502;26.014;2023-03-13T04:38:43;100668.44;;;4.30;63.77
48424;BME280;34232;42.502;26.014;2023-03-13T04:41:08;100680.81;;;4.25;64.08
48424;BME280;34232;42.502;26.014;2023-03-13T04:43:33;100673.25;;;4.20;63.61
48424;BME280;34232;42.502;26.014;2023-03-13T04:45:59;100681.06;;;4.20;63.51
48424;BME280;34232;42.502;26.014;2023-03-13T04:48:24;100682.66;;;4.22;63.93
48424;BME280;34232;42.502;26.014;2023-03-13T04:50:49;100684.34;;;4.23;63.33
48424;BME280;34232;42.502;26.014;2023-03-13T04:53:14;100691.41;;;4.21;63.55
48424;BME280;34232;42.502;26.014;2023-03-13T04:55:40;100687.31;;;4.16;63.24
48424;BME280;34232;42.502;26.014;2023-03-13T04:58:05;100689.72;;;4.20;62.41
48424;BME280;34232;42.502;26.014;2023-03-13T05:00:34;100694.47;;;4.11;62.18
48424;BME280;34232;42.502;26.014;2023-03-13T05:02:59;100690.13;;;4.11;62.64
48424;BME280;34232;42.502;26.014;2023-03-13T05:05:24;100697.47;;;4.22;62.86
48424;BME280;34232;42.502;26.014;2023-03-13T05:07:49;100696.06;;;4.34;62.17
48424;BME280;34232;42.502;26.014;2023-03-13T05:10:15;100699.69;;;4.48;61.74
48424;BME280;34232;42.502;26.014;2023-03-13T05:12:40;100703.41;;;4.62;61.25
48424;BME280;34232;42.502;26.014;2023-03-13T05:15:06;100697.84;;;4.69;61.74
48424;BME280;34232;42.502;26.014;2023-03-13T05:17:31;100702.34;;;4.66;63.17
48424;BME280;34232;42.502;26.014;2023-03-13T05:19:56;100709.81;;;4.73;62.95
48424;BME280;34232;42.502;26.014;2023-03-13T05:22:22;100712.31;;;4.93;62.69
48424;BME280;34232;42.502;26.014;2023-03-13T05:24:47;100714.09;;;5.10;61.90
48424;BME280;34232;42.502;26.014;2023-03-13T05:27:12;100721.16;;;5.25;61.98
48424;BME280;34232;42.502;26.014;2023-03-13T05:29:37;100719.41;;;5.43;61.52
48424;BME280;34232;42.502;26.014;2023-03-13T05:32:03;100719.09;;;5.67;61.65
48424;BME280;34232;42.502;26.014;2023-03-13T05:34:29;100722.41;;;5.86;60.47
48424;BME280;34232;42.502;26.014;2023-03-13T05:36:54;100722.59;;;6.00;59.72
48424;BME280;34232;42.502;26.014;2023-03-13T05:39:19;100705.91;;;6.18;58.84
48424;BME280;34232;42.502;26.014;2023-03-13T05:41:44;100721.72;;;6.48;55.94
48424;BME280;34232;42.502;26.014;2023-03-13T05:44:10;100727.44;;;6.71;54.45
48424;BME280;34232;42.502;26.014;2023-03-13T05:46:35;100740.19;;;6.92;53.22
48424;BME280;34232;42.502;26.014;2023-03-13T05:49:00;100730.44;;;7.10;52.93
48424;BME280;34232;42.502;26.014;2023-03-13T05:51:25;100731.72;;;7.33;51.79
48424;BME280;34232;42.502;26.014;2023-03-13T05:53:51;100727.84;;;7.54;51.84
48424;BME280;34232;42.502;26.014;2023-03-13T05:56:16;100730.31;;;7.71;52.16
48424;BME280;34232;42.502;26.014;2023-03-13T05:58:41;100735.03;;;7.95;50.62
48424;BME280;34232;42.502;26.014;2023-03-13T06:01:07;100732.19;;;8.12;50.26
48424;BME280;34232;42.502;26.014;2023-03-13T06:03:33;100728.28;;;8.33;50.09
48424;BME280;34232;42.502;26.014;2023-03-13T06:05:58;100727.34;;;8.49;48.73
48424;BME280;34232;42.502;26.014;2023-03-13T06:08:23;100727.03;;;8.67;48.71
48424;BME280;34232;42.502;26.014;2023-03-13T06:10:49;100731.19;;;8.84;47.88
48424;BME280;34232;42.502;26.014;2023-03-13T06:13:14;100729.25;;;9.00;47.61
48424;BME280;34232;42.502;26.014;2023-03-13T06:15:39;100729.75;;;9.20;46.92
48424;BME280;34232;42.502;26.014;2023-03-13T06:18:04;100730.41;;;9.36;46.87
48424;BME280;34232;42.502;26.014;2023-03-13T06:20:30;100741.38;;;9.55;45.46
48424;BME280;34232;42.502;26.014;2023-03-13T06:22:55;100735.09;;;9.70;45.21
48424;BME280;34232;42.502;26.014;2023-03-13T06:25:20;100738.88;;;9.92;44.76
48424;BME280;34232;42.502;26.014;2023-03-13T06:27:46;100738.25;;;10.01;44.41
48424;BME280;34232;42.502;26.014;2023-03-13T06:30:11;100745.09;;;10.16;43.82
48424;BME280;34232;42.502;26.014;2023-03-13T06:32:37;100747.72;;;10.16;44.30
48424;BME280;34232;42.502;26.014;2023-03-13T06:35:02;100757.19;;;10.31;42.95
48424;BME280;34232;42.502;26.014;2023-03-13T06:37:28;100750.13;;;10.44;43.32
48424;BME280;34232;42.502;26.014;2023-03-13T06:39:54;100752.41;;;10.62;43.00
48424;BME280;34232;42.502;26.014;2023-03-13T06:42:19;100751.81;;;10.82;43.37
48424;BME280;34232;42.502;26.014;2023-03-13T06:44:45;100752.81;;;10.92;41.58
48424;BME280;34232;42.502;26.014;2023-03-13T06:47:10;100749.19;;;11.06;42.12
48424;BME280;34232;42.502;26.014;2023-03-13T06:49:35;100759.00;;;11.28;41.52
48424;BME280;34232;42.502;26.014;2023-03-13T06:52:00;100759.75;;;11.41;40.76
48424;BME280;34232;42.502;26.014;2023-03-13T06:54:26;100758.13;;;11.51;40.39
48424;BME280;34232;42.502;26.014;2023-03-13T06:56:52;100759.38;;;11.69;39.98
48424;BME280;34232;42.502;26.014;2023-03-13T06:59:17;100760.63;;;11.87;39.82
48424;BME280;34232;42.502;26.014;2023-03-13T07:01:42;100755.84;;;11.93;39.17
48424;BME280;34232;42.502;26.014;2023-03-13T07:04:11;100760.78;;;12.08;39.07
48424;BME280;34232;42.502;26.014;2023-03-13T07:06:37;100758.28;;;12.29;38.32
48424;BME280;34232;42.502;26.014;2023-03-13T07:09:02;100751.31;;;12.39;37.87
48424;BME280;34232;42.502;26.014;2023-03-13T07:11:29;100751.06;;;12.53;38.22
48424;BME280;34232;42.502;26.014;2023-03-13T07:13:54;100750.59;;;12.59;37.93
48424;BME280;34232;42.502;26.014;2023-03-13T07:16:20;100749.28;;;12.65;37.31
48424;BME280;34232;42.502;26.014;2023-03-13T07:18:45;100747.59;;;12.64;37.99
48424;BME280;34232;42.502;26.014;2023-03-13T07:21:10;100755.41;;;12.66;38.19
48424;BME280;34232;42.502;26.014;2023-03-13T07:23:36;100746.88;;;12.62;38.31
48424;BME280;34232;42.502;26.014;2023-03-13T07:26:05;100745.31;;;12.59;36.46
48424;BME280;34232;42.502;26.014;2023-03-13T07:28:31;100748.75;;;12.71;36.98
48424;BME280;34232;42.502;26.014;2023-03-13T07:31:10;100751.03;;;12.76;34.84
48424;BME280;34232;42.502;26.014;2023-03-13T07:33:36;100743.16;;;12.65;34.71
48424;BME280;34232;42.502;26.014;2023-03-13T07:36:01;100747.00;;;12.60;36.44
48424;BME280;34232;42.502;26.014;2023-03-13T07:38:27;100746.28;;;12.47;36.35
48424;BME280;34232;42.502;26.014;2023-03-13T07:40:53;100743.91;;;12.33;36.75
48424;BME280;34232;42.502;26.014;2023-03-13T07:43:19;100740.75;;;12.50;36.08
48424;BME280;34232;42.502;26.014;2023-03-13T07:45:58;100743.84;;;12.67;34.46
48424;BME280;34232;42.502;26.014;2023-03-13T07:48:25;100740.88;;;12.60;34.18
48424;BME280;34232;42.502;26.014;2023-03-13T07:50:53;100743.66;;;12.47;35.33
48424;BME280;34232;42.502;26.014;2023-03-13T07:53:18;100742.88;;;12.68;34.08
48424;BME280;34232;42.502;26.014;2023-03-13T07:55:56;100744.44;;;12.81;33.01
48424;BME280;34232;42.502;26.014;2023-03-13T07:58:22;100738.03;;;12.84;33.37
48424;BME280;34232;42.502;26.014;2023-03-13T08:00:48;100740.25;;;12.79;33.87
48424;BME280;34232;42.502;26.014;2023-03-13T08:03:13;100743.59;;;12.81;33.79
48424;BME280;34232;42.502;26.014;2023-03-13T08:05:39;100747.22;;;12.80;32.84
48424;BME280;34232;42.502;26.014;2023-03-13T08:08:04;100753.84;;;13.06;34.28
48424;BME280;34232;42.502;26.014;2023-03-13T08:10:29;100756.53;;;12.95;35.96
48424;BME280;34232;42.502;26.014;2023-03-13T08:12:55;100758.28;;;13.06;34.20
48424;BME280;34232;42.502;26.014;2023-03-13T08:15:20;100755.03;;;13.13;34.05
48424;BME280;34232;42.502;26.014;2023-03-13T08:17:49;100749.19;;;12.99;26.76
48424;BME280;34232;42.502;26.014;2023-03-13T08:20:15;100752.88;;;13.18;29.18
48424;BME280;34232;42.502;26.014;2023-03-13T08:22:43;100748.00;;;13.35;29.47
48424;BME280;34232;42.502;26.014;2023-03-13T08:25:10;100748.78;;;13.67;30.02
48424;BME280;34232;42.502;26.014;2023-03-13T08:27:35;100751.56;;;13.86;30.87
48424;BME280;34232;42.502;26.014;2023-03-13T08:30:01;100746.88;;;13.69;29.20
48424;BME280;34232;42.502;26.014;2023-03-13T08:32:26;100747.97;;;13.66;30.10
48424;BME280;34232;42.502;26.014;2023-03-13T08:34:51;100745.81;;;13.81;30.61
48424;BME280;34232;42.502;26.014;2023-03-13T08:37:16;100738.22;;;14.18;31.30
48424;BME280;34232;42.502;26.014;2023-03-13T08:39:42;100729.03;;;14.53;31.03
48424;BME280;34232;42.502;26.014;2023-03-13T08:42:10;100730.91;;;14.72;28.56
48424;BME280;34232;42.502;26.014;2023-03-13T08:44:35;100728.44;;;14.89;28.24
48424;BME280;34232;42.502;26.014;2023-03-13T08:47:01;100734.69;;;14.79;25.86
48424;BME280;34232;42.502;26.014;2023-03-13T08:49:26;100733.97;;;14.67;25.83
48424;BME280;34232;42.502;26.014;2023-03-13T08:51:51;100730.16;;;14.50;25.76
48424;BME280;34232;42.502;26.014;2023-03-13T08:54:16;100717.53;;;14.73;25.11
48424;BME280;34232;42.502;26.014;2023-03-13T08:56:42;100722.03;;;14.92;28.05
48424;BME280;34232;42.502;26.014;2023-03-13T08:59:08;100720.63;;;14.88;26.11
48424;BME280;34232;42.502;26.014;2023-03-13T09:01:34;100716.41;;;14.95;26.28
48424;BME280;34232;42.502;26.014;2023-03-13T09:04:00;100723.09;;;14.80;26.46
48424;BME280;34232;42.502;26.014;2023-03-13T09:06:25;100714.13;;;14.61;27.17
48424;BME280;34232;42.502;26.014;2023-03-13T09:08:51;100732.28;;;14.56;27.63
48424;BME280;34232;42.502;26.014;2023-03-13T09:11:17;100721.34;;;14.40;26.32
48424;BME280;34232;42.502;26.014;2023-03-13T09:13:44;100721.09;;;14.43;26.68
48424;BME280;34232;42.502;26.014;2023-03-13T09:16:10;100715.22;;;14.49;27.67
48424;BME280;34232;42.502;26.014;2023-03-13T09:18:36;100707.13;;;14.41;27.75
48424;BME280;34232;42.502;26.014;2023-03-13T09:21:02;100722.38;;;14.58;26.74
48424;BME280;34232;42.502;26.014;2023-03-13T09:23:29;100716.09;;;14.59;27.60
48424;BME280;34232;42.502;26.014;2023-03-13T09:25:55;100707.22;;;14.89;27.50
48424;BME280;34232;42.502;26.014;2023-03-13T09:28:21;100708.34;;;14.87;26.69
48424;BME280;34232;42.502;26.014;2023-03-13T09:30:46;100711.00;;;15.06;25.39
48424;BME280;34232;42.502;26.014;2023-03-13T09:33:14;100712.38;;;15.00;27.24
48424;BME280;34232;42.502;26.014;2023-03-13T09:35:39;100717.81;;;14.99;26.13
48424;BME280;34232;42.502;26.014;2023-03-13T09:38:05;100714.50;;;15.16;24.30
48424;BME280;34232;42.502;26.014;2023-03-13T09:40:30;100716.72;;;15.30;24.25
48424;BME280;34232;42.502;26.014;2023-03-13T09:43:01;100715.63;;;15.23;22.65
48424;BME280;34232;42.502;26.014;2023-03-13T09:45:30;100717.56;;;15.12;22.22
48424;BME280;34232;42.502;26.014;2023-03-13T09:50:49;100717.13;;;15.16;22.54
48424;BME280;34232;42.502;26.014;2023-03-13T09:53:26;100722.28;;;15.47;23.81
48424;BME280;34232;42.502;26.014;2023-03-13T09:55:54;100712.78;;;15.54;22.17
48424;BME280;34232;42.502;26.014;2023-03-13T09:58:20;100715.06;;;15.58;23.08
48424;BME280;34232;42.502;26.014;2023-03-13T10:00:50;100711.69;;;15.37;22.31
48424;BME280;34232;42.502;26.014;2023-03-13T10:03:22;100694.91;;;15.46;22.06
48424;BME280;34232;42.502;26.014;2023-03-13T10:05:50;100693.97;;;15.57;23.44
48424;BME280;34232;42.502;26.014;2023-03-13T10:08:17;100684.34;;;15.56;22.43
48424;BME280;34232;42.502;26.014;2023-03-13T10:13:19;100680.66;;;15.66;23.59
48424;BME280;34232;42.502;26.014;2023-03-13T10:18:15;100674.63;;;15.84;24.40
48424;BME280;34232;42.502;26.014;2023-03-13T10:20:41;100666.72;;;16.01;23.39
48424;BME280;34232;42.502;26.014;2023-03-13T10:23:11;100661.81;;;16.06;23.65
48424;BME280;34232;42.502;26.014;2023-03-13T10:25:38;100656.50;;;16.06;23.98
48424;BME280;34232;42.502;26.014;2023-03-13T10:28:04;100658.53;;;16.40;24.00
48424;BME280;34232;42.502;26.014;2023-03-13T10:30:31;100654.81;;;16.78;22.57
48424;BME280;34232;42.502;26.014;2023-03-13T10:33:00;100657.50;;;16.78;22.50
48424;BME280;34232;42.502;26.014;2023-03-13T10:35:42;100654.91;;;16.41;22.02
48424;BME280;34232;42.502;26.014;2023-03-13T10:38:12;100644.59;;;16.38;22.24
48424;BME280;34232;42.502;26.014;2023-03-13T10:40:37;100652.09;;;16.42;21.19
48424;BME280;34232;42.502;26.014;2023-03-13T10:45:35;100650.09;;;16.27;20.66
48424;BME280;34232;42.502;26.014;2023-03-13T10:48:23;100648.69;;;16.50;21.79
48424;BME280;34232;42.502;26.014;2023-03-13T10:50:48;100646.94;;;16.41;20.59
48424;BME280;34232;42.502;26.014;2023-03-13T10:53:35;100652.94;;;16.43;21.85
48424;BME280;34232;42.502;26.014;2023-03-13T10:56:02;100642.13;;;16.27;21.00
48424;BME280;34232;42.502;26.014;2023-03-13T10:58:34;100645.75;;;16.26;20.83
48424;BME280;34232;42.502;26.014;2023-03-13T11:03:41;100634.16;;;16.90;20.59
48424;BME280;34232;42.502;26.014;2023-03-13T11:06:14;100629.81;;;17.06;21.31
48424;BME280;34232;42.502;26.014;2023-03-13T11:08:46;100621.97;;;17.05;22.22
48424;BME280;34232;42.502;26.014;2023-03-13T11:11:16;100626.66;;;16.85;21.10
48424;BME280;34232;42.502;26.014;2023-03-13T11:13:42;100625.03;;;17.10;21.17
48424;BME280;34232;42.502;26.014;2023-03-13T11:16:25;100625.84;;;17.10;21.94
48424;BME280;34232;42.502;26.014;2023-03-13T11:21:22;100630.81;;;15.97;22.25
48424;BME280;34232;42.502;26.014;2023-03-13T11:23:53;100617.94;;;16.02;22.21
48424;BME280;34232;42.502;26.014;2023-03-13T11:28:57;100600.81;;;15.87;22.00
48424;BME280;34232;42.502;26.014;2023-03-13T11:41:36;100577.22;;;15.84;22.03
48424;BME280;34232;42.502;26.014;2023-03-13T11:58:50;100566.28;;;16.32;22.84
48424;BME280;34232;42.502;26.014;2023-03-13T12:01:21;100561.03;;;16.40;22.07
48424;BME280;34232;42.502;26.014;2023-03-13T12:06:17;100552.41;;;16.21;22.26
48424;BME280;34232;42.502;26.014;2023-03-13T12:08:47;100546.03;;;16.31;22.22
48424;BME280;34232;42.502;26.014;2023-03-13T12:13:51;100542.53;;;16.31;22.68
48424;BME280;34232;42.502;26.014;2023-03-13T12:16:20;100542.66;;;16.12;22.89
48424;BME280;34232;42.502;26.014;2023-03-13T12:18:47;100542.78;;;15.92;23.20
48424;BME280;34232;42.502;26.014;2023-03-13T12:26:33;100526.28;;;16.34;22.85
48424;BME280;34232;42.502;26.014;2023-03-13T12:31:51;100529.81;;;15.62;22.42
48424;BME280;34232;42.502;26.014;2023-03-13T12:36:47;100522.78;;;15.33;23.14
48424;BME280;34232;42.502;26.014;2023-03-13T12:39:29;100528.22;;;15.32;23.95
48424;BME280;34232;42.502;26.014;2023-03-13T12:44:25;100528.72;;;15.08;22.93
48424;BME280;34232;42.502;26.014;2023-03-13T12:46:58;100516.91;;;14.93;23.05
48424;BME280;34232;42.502;26.014;2023-03-13T12:49:30;100516.34;;;14.89;23.16
48424;BME280;34232;42.502;26.014;2023-03-13T12:59:58;100511.88;;;15.36;23.70
48424;BME280;34232;42.502;26.014;2023-03-13T13:02:29;100514.72;;;15.62;24.05
48424;BME280;34232;42.502;26.014;2023-03-13T13:04:55;100516.84;;;15.86;22.66
48424;BME280;34232;42.502;26.014;2023-03-13T13:10:04;100513.94;;;15.43;23.31
48424;BME280;34232;42.502;26.014;2023-03-13T13:12:41;100520.19;;;15.14;24.29
48424;BME280;34232;42.502;26.014;2023-03-13T13:22:48;100514.84;;;14.67;23.73
48424;BME280;34232;42.502;26.014;2023-03-13T13:32:50;100518.13;;;15.08;24.29
48424;BME280;34232;42.502;26.014;2023-03-13T13:37:44;100506.06;;;15.23;24.44
48424;BME280;34232;42.502;26.014;2023-03-13T13:40:20;100499.38;;;15.19;24.73
48424;BME280;34232;42.502;26.014;2023-03-13T13:47:40;100497.63;;;15.00;24.30
48424;BME280;34232;42.502;26.014;2023-03-13T13:50:19;100504.03;;;15.08;24.75
48424;BME280;34232;42.502;26.014;2023-03-13T13:52:45;100496.91;;;15.08;24.63
48424;BME280;34232;42.502;26.014;2023-03-13T13:58:05;100490.34;;;15.02;24.88
48424;BME280;34232;42.502;26.014;2023-03-13T14:00:42;100484.78;;;14.96;24.24
48424;BME280;34232;42.502;26.014;2023-03-13T14:03:19;100487.84;;;15.01;24.47
48424;BME280;34232;42.502;26.014;2023-03-13T14:05:46;100490.09;;;14.96;25.22
48424;BME280;34232;42.502;26.014;2023-03-13T14:13:18;100480.34;;;14.87;25.58
48424;BME280;34232;42.502;26.014;2023-03-13T14:15:53;100485.66;;;14.87;24.84
48424;BME280;34232;42.502;26.014;2023-03-13T14:18:28;100486.22;;;14.81;25.13
48424;BME280;34232;42.502;26.014;2023-03-13T14:25:53;100483.88;;;14.68;26.31
48424;BME280;34232;42.502;26.014;2023-03-13T14:28:20;100484.28;;;14.63;26.67
48424;BME280;34232;42.502;26.014;2023-03-13T14:30:46;100482.34;;;14.65;26.27
48424;BME280;34232;42.502;26.014;2023-03-13T14:33:11;100484.88;;;14.57;25.99
48424;BME280;34232;42.502;26.014;2023-03-13T14:35:37;100482.63;;;14.62;25.26
48424;BME280;34232;42.502;26.014;2023-03-13T14:38:03;100486.56;;;14.58;25.45
48424;BME280;34232;42.502;26.014;2023-03-13T14:40:29;100483.63;;;14.42;25.54
48424;BME280;34232;42.502;26.014;2023-03-13T14:42:59;100490.72;;;14.51;25.41
48424;BME280;34232;42.502;26.014;2023-03-13T14:45:26;100485.44;;;14.51;26.38